createdAt,value
2023-04-15T00:01:35.463Z,5.73
2023-04-15T00:03:37.316Z,5.27
2023-04-15T00:05:39.412Z,6.50
2023-04-15T00:07:41.021Z,5.80
2023-04-15T00:09:42.690Z,5.63
2023-04-15T00:11:44.324Z,6.65
2023-04-15T00:13:46.093Z,6.40
2023-04-15T00:15:47.763Z,6.13
2023-04-15T00:17:51.846Z,6.93
2023-04-15T00:19:53.566Z,6.32
2023-04-15T00:21:55.207Z,5.50
2023-04-15T00:23:56.907Z,5.07
2023-04-15T00:25:58.546Z,5.00
2023-04-15T00:28:00.292Z,5.70
2023-04-15T00:30:02.010Z,5.53
2023-04-15T00:32:03.742Z,5.10
2023-04-15T00:34:06.723Z,5.17
2023-04-15T00:36:08.446Z,5.60
2023-04-15T00:38:10.183Z,6.30
2023-04-15T00:40:13.090Z,6.10
2023-04-15T00:42:15.596Z,4.88
2023-04-15T00:44:17.284Z,5.47
2023-04-15T00:46:20.189Z,5.55
2023-04-15T00:48:21.887Z,5.60
2023-04-15T00:50:25.245Z,5.85
2023-04-15T00:52:26.864Z,6.88
2023-04-15T00:54:28.572Z,6.20
2023-04-15T00:56:30.745Z,5.18
2023-04-15T00:58:32.885Z,5.20
2023-04-15T01:00:34.696Z,5.75
2023-04-15T01:02:36.725Z,5.25
2023-04-15T01:04:38.642Z,6.07
2023-04-15T01:06:41.891Z,5.18
2023-04-15T01:08:43.765Z,5.65
2023-04-15T01:10:45.651Z,5.87
2023-04-15T01:12:47.286Z,5.20
2023-04-15T01:14:48.882Z,5.10
2023-04-15T01:16:50.474Z,5.95
2023-04-15T01:18:52.558Z,5.95
2023-04-15T01:20:54.338Z,5.80
2023-04-15T01:22:57.323Z,5.40
2023-04-15T01:25:09.767Z,5.40
2023-04-15T01:27:12.633Z,6.40
2023-04-15T01:29:14.260Z,6.47
2023-04-15T01:31:15.982Z,5.82
2023-04-15T01:33:17.560Z,5.85
2023-04-15T01:35:19.261Z,6.47
2023-04-15T01:37:20.862Z,5.67
2023-04-15T01:39:22.482Z,5.22
2023-04-15T01:41:25.896Z,5.43
2023-04-15T01:43:28.923Z,6.25
2023-04-15T01:45:30.493Z,6.70
2023-04-15T01:47:32.095Z,6.13
2023-04-15T01:49:34.059Z,5.97
2023-04-15T01:51:35.626Z,5.45
2023-04-15T01:53:37.353Z,5.35
2023-04-15T01:55:38.901Z,6.47
2023-04-15T01:57:40.686Z,6.72
2023-04-15T01:59:43.835Z,6.10
2023-04-15T02:01:45.494Z,6.15
2023-04-15T02:03:47.205Z,5.85
2023-04-15T02:05:48.862Z,6.00
2023-04-15T02:07:50.455Z,7.03
2023-04-15T02:09:52.036Z,6.50
2023-04-15T02:11:53.781Z,5.95
2023-04-15T02:13:55.332Z,6.68
2023-04-15T02:15:58.798Z,5.68
2023-04-15T02:18:00.405Z,6.10
2023-04-15T02:20:02.037Z,6.03
2023-04-15T02:22:03.749Z,5.47
2023-04-15T02:24:05.793Z,6.55
2023-04-15T02:26:07.477Z,5.80
2023-04-15T02:28:09.041Z,6.32
2023-04-15T02:30:11.156Z,5.47
2023-04-15T02:32:14.238Z,5.65
2023-04-15T02:34:15.888Z,6.10
2023-04-15T02:36:17.432Z,4.68
2023-04-15T02:38:19.004Z,5.72
2023-04-15T02:40:20.743Z,4.95
2023-04-15T02:42:22.317Z,4.60
2023-04-15T02:44:23.928Z,5.65
2023-04-15T02:46:25.583Z,4.93
2023-04-15T02:48:28.757Z,5.05
2023-04-15T02:50:30.321Z,4.82
2023-04-15T02:52:31.880Z,4.32
2023-04-15T02:54:33.473Z,4.72
2023-04-15T02:56:34.996Z,5.07
2023-04-15T02:58:36.525Z,5.55
2023-04-15T03:00:38.296Z,5.00
2023-04-15T03:02:40.163Z,5.18
2023-04-15T03:04:43.132Z,5.28
2023-04-15T03:06:44.675Z,5.20
2023-04-15T03:08:46.325Z,5.18
2023-04-15T03:10:47.887Z,4.70
2023-04-15T03:12:49.466Z,4.40
2023-04-15T03:14:50.977Z,5.10
2023-04-15T03:16:52.652Z,5.25
2023-04-15T03:18:54.217Z,5.75
2023-04-15T03:20:57.153Z,5.53
2023-04-15T03:22:58.705Z,5.32
2023-04-15T03:25:00.383Z,4.50
2023-04-15T03:27:01.917Z,4.47
2023-04-15T03:29:03.679Z,4.80
2023-04-15T03:31:05.569Z,4.68
2023-04-15T03:33:07.318Z,5.07
2023-04-15T03:35:09.328Z,5.07
2023-04-15T03:37:12.222Z,4.40
2023-04-15T03:39:13.923Z,4.35
2023-04-15T03:41:16.115Z,4.88
2023-04-15T03:43:17.708Z,5.03
2023-04-15T03:45:19.264Z,4.40
2023-04-15T03:47:20.927Z,5.10
2023-04-15T03:49:22.493Z,5.05
2023-04-15T03:51:24.044Z,5.80
2023-04-15T03:53:29.506Z,4.88
2023-04-15T03:55:31.029Z,5.45
2023-04-15T03:57:32.832Z,4.70
2023-04-15T03:59:34.398Z,4.55
2023-04-15T04:01:36.144Z,5.00
2023-04-15T04:03:37.972Z,5.65
2023-04-15T04:05:40.068Z,5.10
2023-04-15T04:07:41.572Z,5.38
2023-04-15T04:09:46.687Z,6.07
2023-04-15T04:11:50.005Z,5.00
2023-04-15T04:13:51.585Z,5.20
2023-04-15T04:15:53.195Z,5.05
2023-04-15T04:17:54.793Z,7.05
2023-04-15T04:19:56.389Z,5.60
2023-04-15T04:21:58.081Z,4.57
2023-04-15T04:23:59.753Z,4.97
2023-04-15T04:26:02.677Z,4.90
2023-04-15T04:28:04.553Z,4.53
2023-04-15T04:30:07.429Z,4.60
2023-04-15T04:32:09.062Z,4.70
2023-04-15T04:34:10.675Z,4.78
2023-04-15T04:36:12.319Z,4.80
2023-04-15T04:38:13.835Z,4.60
2023-04-15T04:40:15.807Z,4.57
2023-04-15T04:42:18.695Z,4.20
2023-04-15T04:44:20.398Z,4.93
2023-04-15T04:46:21.990Z,4.30
2023-04-15T04:48:24.852Z,5.50
2023-04-15T04:50:26.405Z,6.38
2023-04-15T04:52:27.947Z,4.85
2023-04-15T04:54:29.470Z,5.40
2023-04-15T04:56:31.031Z,5.13
2023-04-15T04:58:33.971Z,5.30
2023-04-15T05:00:35.566Z,4.70
2023-04-15T05:02:37.185Z,5.28
2023-04-15T05:04:38.845Z,5.35
2023-04-15T05:06:40.379Z,4.30
2023-04-15T05:08:41.977Z,4.68
2023-04-15T05:10:43.748Z,5.25
2023-04-15T05:12:45.284Z,5.70
2023-04-15T05:14:48.228Z,5.25
2023-04-15T05:16:49.854Z,5.50
2023-04-15T05:18:51.418Z,5.82
2023-04-15T05:20:52.985Z,5.15
2023-04-15T05:22:54.658Z,5.35
2023-04-15T05:24:56.220Z,5.47
2023-04-15T05:26:57.905Z,5.22
2023-04-15T05:28:59.607Z,4.85
2023-04-15T05:31:02.995Z,6.55
2023-04-15T05:33:04.816Z,6.55
2023-04-15T05:35:07.366Z,6.50
2023-04-15T05:37:08.883Z,5.90
2023-04-15T05:39:10.524Z,5.70
2023-04-15T05:41:12.820Z,6.90
2023-04-15T05:43:14.481Z,6.28
2023-04-15T05:45:16.081Z,6.15
2023-04-15T05:47:19.120Z,6.88
2023-04-15T05:49:20.715Z,6.95
2023-04-15T05:51:22.363Z,6.15
2023-04-15T05:53:24.074Z,6.30
2023-04-15T05:55:25.687Z,6.80
2023-04-15T05:57:27.373Z,6.63
2023-04-15T05:59:28.930Z,6.78
2023-04-15T06:01:30.563Z,7.20
2023-04-15T06:03:33.640Z,6.55
2023-04-15T06:05:35.328Z,6.70
2023-04-15T06:07:36.878Z,6.70
2023-04-15T06:09:39.811Z,6.15
2023-04-15T06:11:41.536Z,6.15
2023-04-15T06:13:43.449Z,6.45
2023-04-15T06:15:44.960Z,6.53
2023-04-15T06:17:46.688Z,7.05
2023-04-15T06:19:49.711Z,7.20
2023-04-15T06:21:51.333Z,7.18
2023-04-15T06:23:53.371Z,7.32
2023-04-15T06:25:54.951Z,6.95
2023-04-15T06:27:56.511Z,8.13
2023-04-15T06:29:58.190Z,8.25
2023-04-15T06:31:59.776Z,8.73
2023-04-15T06:34:01.411Z,7.95
2023-04-15T06:36:04.363Z,8.32
2023-04-15T06:38:05.990Z,8.15
2023-04-15T06:40:09.130Z,8.20
2023-04-15T06:42:11.354Z,7.72
2023-04-15T06:44:13.195Z,8.55
2023-04-15T06:46:14.780Z,7.93
2023-04-15T06:48:16.462Z,8.02
2023-04-15T06:50:18.259Z,9.30
2023-04-15T06:52:21.202Z,8.57
2023-04-15T06:54:22.779Z,8.57
2023-04-15T06:56:24.449Z,9.05
2023-04-15T06:58:26.009Z,9.25
2023-04-15T07:00:27.829Z,7.20
2023-04-15T07:02:29.697Z,7.47
2023-04-15T07:04:31.479Z,7.82
2023-04-15T07:06:33.272Z,7.72
2023-04-15T07:08:36.364Z,7.70
2023-04-15T07:10:38.008Z,7.78
2023-04-15T07:12:39.659Z,7.97
2023-04-15T07:14:41.222Z,8.85
2023-04-15T07:16:42.849Z,8.98
2023-04-15T07:18:44.472Z,7.60
2023-04-15T07:20:46.119Z,8.73
2023-04-15T07:22:47.805Z,8.32
2023-04-15T07:24:50.890Z,9.25
2023-04-15T07:26:53.501Z,7.85
2023-04-15T07:28:55.063Z,6.65
2023-04-15T07:30:56.713Z,6.78
2023-04-15T07:32:58.542Z,6.57
2023-04-15T07:35:00.204Z,6.72
2023-04-15T07:37:01.803Z,6.15
2023-04-15T07:39:03.884Z,5.70
2023-04-15T07:41:07.280Z,6.40
2023-04-15T07:43:08.931Z,5.93
2023-04-15T07:45:11.512Z,7.32
2023-04-15T07:47:13.065Z,7.22
2023-04-15T07:49:14.655Z,5.88
2023-04-15T07:51:16.312Z,7.18
2023-04-15T07:53:17.967Z,6.95
2023-04-15T07:55:19.581Z,6.38
2023-04-15T07:57:22.672Z,7.30
2023-04-15T07:59:24.418Z,7.15
2023-04-15T08:01:25.972Z,7.05
2023-04-15T08:03:27.825Z,7.70
2023-04-15T08:05:29.551Z,7.00
2023-04-15T08:07:31.382Z,8.65
2023-04-15T08:09:32.960Z,7.18
2023-04-15T08:11:37.658Z,7.53
2023-04-15T08:13:40.586Z,7.85
2023-04-15T08:15:42.188Z,7.80
2023-04-15T08:17:43.830Z,7.13
2023-04-15T08:19:45.440Z,7.80
2023-04-15T08:21:47.055Z,8.47
2023-04-15T08:23:50.302Z,7.85
2023-04-15T08:25:51.845Z,8.10
2023-04-15T08:27:55.725Z,7.75
2023-04-15T08:29:58.642Z,7.80
2023-04-15T08:32:00.782Z,7.50
2023-04-15T08:34:02.469Z,8.00
2023-04-15T08:36:04.551Z,8.98
2023-04-15T08:38:06.148Z,8.70
2023-04-15T08:40:08.890Z,7.53
2023-04-15T08:42:16.231Z,9.27
2023-04-15T08:44:18.417Z,8.47
2023-04-15T08:46:21.737Z,9.40
2023-04-15T08:48:24.178Z,8.07
2023-04-15T08:50:28.979Z,8.10
2023-04-15T08:52:31.061Z,7.70
2023-04-15T08:54:34.396Z,7.23
2023-04-15T08:56:37.145Z,7.03
2023-04-15T08:58:38.926Z,7.55
2023-04-15T09:00:40.706Z,7.27
2023-04-15T09:02:44.059Z,6.33
2023-04-15T09:04:45.739Z,6.78
2023-04-15T09:06:47.307Z,6.07
2023-04-15T09:08:49.505Z,7.88
2023-04-15T09:10:51.087Z,7.87
2023-04-15T09:12:55.647Z,5.97
2023-04-15T09:14:57.439Z,7.13
2023-04-15T09:17:00.560Z,6.27
2023-04-15T09:19:20.814Z,6.53
2023-04-15T09:21:22.350Z,5.33
2023-04-15T09:23:24.024Z,5.70
2023-04-15T09:25:27.419Z,4.90
2023-04-15T09:27:29.048Z,6.00
2023-04-15T09:29:30.653Z,5.50
2023-04-15T09:31:32.389Z,5.93
2023-04-15T09:33:34.566Z,6.67
2023-04-15T09:35:37.595Z,5.87
2023-04-15T09:37:39.183Z,6.00
2023-04-15T09:39:47.855Z,5.50
2023-04-15T09:42:04.788Z,5.27
2023-04-15T09:44:06.643Z,6.00
2023-04-15T09:46:08.517Z,6.17
2023-04-15T09:48:18.771Z,7.07
2023-04-15T09:50:21.017Z,5.53
2023-04-15T09:52:24.056Z,6.20
2023-04-15T09:54:25.627Z,6.43
2023-04-15T09:56:34.341Z,6.80
2023-04-15T09:58:36.240Z,6.57
2023-04-15T10:00:38.100Z,6.77
2023-04-15T10:02:41.654Z,6.87
2023-04-15T10:04:44.639Z,5.33
2023-04-15T10:06:46.144Z,6.40
2023-04-15T10:08:49.432Z,6.50
2023-04-15T10:10:51.592Z,4.77
2023-04-15T10:12:55.133Z,7.00
2023-04-15T10:14:59.348Z,7.50
2023-04-15T10:17:02.506Z,7.30
2023-04-15T10:19:06.028Z,8.17
2023-04-15T10:21:09.357Z,8.20
2023-04-15T10:23:13.368Z,7.50
2023-04-15T10:25:16.964Z,5.57
2023-04-15T10:27:20.347Z,5.10
2023-04-15T10:29:23.199Z,5.10
2023-04-15T10:31:28.740Z,5.27
2023-04-15T10:33:30.750Z,10.47
2023-04-15T10:35:33.327Z,5.67
2023-04-15T10:37:36.470Z,4.80
2023-04-15T10:39:42.644Z,4.20
2023-04-15T10:41:45.625Z,4.37
2023-04-15T10:43:52.105Z,3.30
2023-04-15T10:45:53.648Z,3.70
2023-04-15T10:47:56.362Z,3.57
2023-04-15T10:49:59.236Z,2.90
2023-04-15T10:52:01.789Z,2.40
2023-04-15T10:54:08.727Z,3.33
2023-04-15T10:56:10.314Z,6.07
2023-04-15T10:58:13.185Z,2.40
2023-04-15T11:00:17.016Z,2.40
2023-04-15T11:02:18.843Z,2.90
2023-04-15T11:04:52.287Z,2.93
2023-04-15T11:07:05.701Z,3.03
2023-04-15T11:09:07.429Z,3.17
2023-04-15T11:11:08.956Z,2.63
2023-04-15T11:13:18.039Z,2.90
2023-04-15T11:15:28.715Z,3.00
2023-04-15T11:17:30.462Z,3.70
2023-04-15T11:19:38.506Z,2.60
2023-04-15T11:21:40.145Z,2.27
2023-04-15T11:23:43.351Z,2.57
2023-04-15T11:25:45.400Z,2.57
2023-04-15T11:27:46.940Z,2.53
2023-04-15T11:29:49.891Z,2.13
2023-04-15T11:31:51.524Z,2.90
2023-04-15T11:33:58.192Z,3.10
2023-04-15T11:35:59.901Z,4.07
2023-04-15T11:38:03.599Z,3.50
2023-04-15T11:40:07.114Z,3.83
2023-04-15T11:42:16.932Z,3.67
2023-04-15T11:44:18.880Z,2.90
2023-04-15T11:46:28.652Z,2.83
2023-04-15T11:48:32.052Z,2.93
2023-04-15T11:50:40.483Z,2.80
2023-04-15T11:52:42.246Z,2.80
2023-04-15T11:54:43.847Z,2.20
2023-04-15T11:56:50.899Z,3.10
2023-04-15T11:58:53.940Z,2.93
2023-04-15T12:00:58.566Z,2.60
2023-04-15T12:03:14.450Z,2.37
2023-04-15T12:05:16.400Z,2.27
2023-04-15T12:07:18.057Z,2.73
2023-04-15T12:09:21.367Z,3.03
2023-04-15T12:11:29.697Z,3.33
2023-04-15T12:13:31.311Z,3.53
2023-04-15T12:15:32.963Z,3.40
2023-04-15T12:17:51.458Z,3.30
2023-04-15T12:19:57.456Z,3.10
2023-04-15T12:22:01.430Z,3.17
2023-04-15T12:24:05.342Z,2.90
2023-04-15T12:26:07.150Z,3.03
2023-04-15T12:28:11.276Z,3.00
2023-04-15T12:30:13.322Z,3.60
2023-04-15T12:32:16.288Z,3.67
2023-04-15T12:34:18.614Z,3.67
2023-04-15T12:36:21.591Z,3.00
2023-04-15T12:38:23.216Z,2.93
2023-04-15T12:40:24.821Z,3.57
2023-04-15T12:42:26.344Z,2.37
2023-04-15T12:44:28.639Z,2.60
2023-04-15T12:46:30.286Z,2.60
2023-04-15T12:48:31.975Z,2.33
2023-04-15T12:50:33.557Z,2.47
2023-04-15T12:52:36.557Z,1.77
2023-04-15T12:54:39.070Z,1.70
2023-04-15T12:56:40.608Z,1.97
2023-04-15T12:58:42.370Z,1.73
2023-04-15T13:00:44.147Z,1.80
2023-04-15T13:02:45.812Z,1.93
2023-04-15T13:04:47.496Z,1.70
2023-04-15T13:06:49.288Z,2.03
2023-04-15T13:08:58.183Z,1.90
2023-04-15T13:11:00.509Z,1.80
2023-04-15T13:13:02.116Z,1.77
2023-04-15T13:15:05.604Z,2.43
2023-04-15T13:17:07.394Z,2.53
2023-04-15T13:19:08.952Z,2.30
2023-04-15T13:21:10.588Z,2.43
2023-04-15T13:23:12.218Z,2.10
2023-04-15T13:25:15.169Z,1.80
2023-04-15T13:27:16.836Z,2.20
2023-04-15T13:29:18.452Z,2.27
2023-04-15T13:31:19.995Z,1.87
2023-04-15T13:33:21.654Z,2.20
2023-04-15T13:35:23.218Z,2.00
2023-04-15T13:37:26.803Z,2.67
2023-04-15T13:39:28.397Z,2.40
2023-04-15T13:41:31.318Z,2.03
2023-04-15T13:43:32.823Z,2.40
2023-04-15T13:45:34.501Z,1.90
2023-04-15T13:47:36.399Z,1.93
2023-04-15T13:49:37.922Z,1.90
2023-04-15T13:51:39.552Z,1.77
2023-04-15T13:53:41.176Z,1.60
2023-04-15T13:55:42.897Z,1.80
2023-04-15T13:57:46.148Z,1.50
2023-04-15T13:59:48.267Z,1.60
2023-04-15T14:01:50.117Z,1.93
2023-04-15T14:03:51.870Z,1.80
2023-04-15T14:05:53.539Z,2.27
2023-04-15T14:07:55.112Z,2.60
2023-04-15T14:09:56.868Z,2.87
2023-04-15T14:11:58.446Z,3.17
2023-04-15T14:14:01.398Z,2.57
2023-04-15T14:16:03.240Z,3.50
2023-04-15T14:18:04.839Z,3.03
2023-04-15T14:20:08.326Z,2.70
2023-04-15T14:22:09.887Z,2.77
2023-04-15T14:24:11.474Z,2.60
2023-04-15T14:26:13.055Z,3.00
2023-04-15T14:28:14.857Z,3.40
2023-04-15T14:30:17.859Z,3.90
2023-04-15T14:32:19.497Z,3.13
2023-04-15T14:34:21.033Z,3.20
2023-04-15T14:36:22.780Z,3.90
2023-04-15T14:38:24.324Z,3.43
2023-04-15T14:40:25.950Z,3.57
2023-04-15T14:42:27.626Z,2.30
2023-04-15T14:44:29.188Z,2.90
2023-04-15T14:46:32.137Z,2.13
2023-04-15T14:48:33.904Z,2.20
2023-04-15T14:50:35.543Z,2.30
2023-04-15T14:52:37.214Z,2.67
2023-04-15T14:54:38.832Z,3.10
2023-04-15T14:56:40.404Z,3.03
2023-04-15T14:58:41.988Z,2.40
2023-04-15T15:00:43.884Z,2.50
2023-04-15T15:02:46.994Z,2.17
2023-04-15T15:04:48.803Z,2.13
2023-04-15T15:06:50.534Z,2.73
2023-04-15T15:08:52.105Z,2.83
2023-04-15T15:10:53.658Z,2.70
2023-04-15T15:12:55.212Z,2.10
2023-04-15T15:14:56.818Z,2.60
2023-04-15T15:16:58.588Z,2.70
2023-04-15T15:19:01.558Z,2.47
2023-04-15T15:21:03.156Z,2.90
2023-04-15T15:23:04.738Z,3.80
2023-04-15T15:25:06.676Z,3.33
2023-04-15T15:27:08.367Z,3.53
2023-04-15T15:29:09.966Z,2.80
2023-04-15T15:31:11.788Z,3.43
2023-04-15T15:33:13.458Z,3.13
2023-04-15T15:35:16.396Z,3.00
2023-04-15T15:37:18.081Z,3.17
2023-04-15T15:39:19.618Z,3.40
2023-04-15T15:41:21.070Z,3.07
2023-04-15T15:43:22.638Z,3.00
2023-04-15T15:45:24.264Z,2.97
2023-04-15T15:47:26.095Z,2.40
2023-04-15T15:49:28.302Z,2.87
2023-04-15T15:51:31.178Z,2.70
2023-04-15T15:53:37.073Z,2.90
2023-04-15T15:55:38.965Z,3.10
2023-04-15T15:57:40.512Z,3.23
2023-04-15T15:59:42.080Z,2.50
2023-04-15T16:01:44.196Z,2.20
2023-04-15T16:03:45.834Z,2.00
2023-04-15T16:05:47.514Z,2.43
2023-04-15T16:07:50.578Z,2.23
2023-04-15T16:09:53.065Z,1.80
2023-04-15T16:11:54.693Z,2.10
2023-04-15T16:13:56.346Z,1.80
2023-04-15T16:15:57.907Z,2.03
2023-04-15T16:17:59.588Z,2.17
2023-04-15T16:20:01.546Z,2.27
2023-04-15T16:22:03.220Z,2.33
2023-04-15T16:24:06.836Z,2.20
2023-04-15T16:26:08.447Z,2.53
2023-04-15T16:28:22.656Z,2.47
2023-04-15T16:30:27.872Z,2.60
2023-04-15T16:32:29.551Z,2.03
2023-04-15T16:34:31.177Z,2.60
2023-04-15T16:36:34.318Z,2.90
2023-04-15T16:38:35.926Z,2.43
2023-04-15T16:40:38.947Z,2.50
2023-04-15T16:42:40.569Z,3.50
2023-04-15T16:44:42.259Z,4.17
2023-04-15T16:46:43.860Z,2.70
2023-04-15T16:48:45.490Z,7.40
2023-04-15T16:50:47.595Z,3.33
2023-04-15T16:52:49.214Z,2.65
2023-04-15T16:54:50.732Z,3.40
2023-04-15T16:56:56.602Z,2.40
2023-04-15T16:58:58.214Z,2.50
2023-04-15T17:00:59.923Z,3.13
2023-04-15T17:03:01.948Z,2.93
2023-04-15T17:05:05.300Z,2.80
2023-04-15T17:07:06.876Z,3.20
2023-04-15T17:09:08.542Z,2.50
2023-04-15T17:11:10.713Z,3.53
2023-04-15T17:13:13.677Z,2.93
2023-04-15T17:15:15.324Z,4.50
2023-04-15T17:17:16.982Z,4.73
2023-04-15T17:19:18.553Z,5.40
2023-04-15T17:21:20.170Z,4.77
2023-04-15T17:23:21.804Z,4.70
2023-04-15T17:25:23.770Z,5.40
2023-04-15T17:27:25.390Z,5.20
2023-04-15T17:29:28.334Z,7.47
2023-04-15T17:31:30.369Z,4.43
2023-04-15T17:33:59.833Z,4.80
2023-04-15T17:35:53.489Z,5.00
2023-04-15T17:37:55.059Z,5.20
2023-04-15T17:39:56.682Z,4.00
2023-04-15T17:41:58.274Z,4.00
2023-04-15T17:43:59.797Z,4.03
2023-04-15T17:46:02.772Z,4.30
2023-04-15T17:48:04.475Z,3.97
2023-04-15T17:50:07.579Z,4.93
2023-04-15T17:52:09.181Z,4.10
2023-04-15T17:54:10.738Z,3.73
2023-04-15T17:56:12.334Z,4.30
2023-04-15T17:58:13.994Z,4.77
2023-04-15T18:00:16.686Z,4.35
2023-04-15T18:02:19.668Z,9.65
2023-04-15T18:04:22.766Z,7.50
2023-04-15T18:06:26.207Z,5.63
2023-04-15T18:08:27.962Z,4.78
2023-04-15T18:10:29.571Z,4.43
2023-04-15T18:12:31.119Z,5.73
2023-04-15T18:14:34.943Z,5.10
2023-04-15T18:16:36.918Z,5.83
2023-04-15T18:18:39.803Z,5.05
2023-04-15T18:20:41.329Z,4.90
2023-04-15T18:22:43.528Z,4.03
2023-04-15T18:24:45.070Z,4.18
2023-04-15T18:26:48.876Z,5.40
2023-04-15T18:28:50.836Z,4.30
2023-04-15T18:30:52.503Z,4.57
2023-04-15T18:32:54.105Z,6.20
2023-04-15T18:34:57.036Z,6.57
2023-04-15T18:36:58.709Z,5.07
2023-04-15T18:39:00.302Z,5.57
2023-04-15T18:41:01.992Z,7.23
2023-04-15T18:43:03.608Z,6.77
2023-04-15T18:45:06.037Z,8.80
2023-04-15T18:47:07.763Z,7.90
2023-04-15T18:49:09.908Z,5.67
2023-04-15T18:51:12.852Z,5.95
2023-04-15T18:53:14.641Z,5.93
2023-04-15T18:55:18.489Z,6.28
2023-04-15T18:57:30.844Z,5.43
2023-04-15T18:59:34.594Z,5.40
2023-04-15T19:01:36.278Z,5.60
2023-04-15T19:03:37.881Z,5.07
2023-04-15T19:05:39.535Z,5.15
2023-04-15T19:07:42.583Z,5.97
2023-04-15T19:09:44.306Z,5.70
2023-04-15T19:11:45.885Z,5.73
2023-04-15T19:13:47.427Z,6.15
2023-04-15T19:15:48.962Z,5.78
2023-04-15T19:17:50.874Z,5.63
2023-04-15T19:19:52.377Z,5.32
2023-04-15T19:21:53.990Z,6.00
2023-04-15T19:23:57.607Z,6.60
2023-04-15T19:25:59.215Z,4.77
2023-04-15T19:28:01.036Z,5.87
2023-04-15T19:30:02.680Z,6.07
2023-04-15T19:32:04.586Z,6.30
2023-04-15T19:34:06.159Z,6.32
2023-04-15T19:36:07.843Z,6.50
2023-04-15T19:38:09.390Z,5.90
2023-04-15T19:40:12.775Z,5.63
2023-04-15T19:42:14.381Z,6.43
2023-04-15T19:44:16.100Z,5.57
2023-04-15T19:46:17.954Z,5.80
2023-04-15T19:48:19.848Z,5.85
2023-04-15T19:50:21.398Z,6.97
2023-04-15T19:52:22.982Z,6.63
2023-04-15T19:54:24.738Z,6.07
2023-04-15T19:56:27.712Z,6.20
2023-04-15T19:58:29.352Z,5.90
2023-04-15T20:00:31.161Z,6.28
2023-04-15T20:02:32.890Z,7.50
2023-04-15T20:04:34.885Z,7.45
2023-04-15T20:06:36.561Z,6.03
2023-04-15T20:08:38.285Z,6.80
2023-04-15T20:10:39.839Z,7.20
2023-04-15T20:12:50.466Z,6.73
2023-04-15T20:14:54.550Z,7.15
2023-04-15T20:16:56.179Z,7.60
2023-04-15T20:18:57.793Z,6.83
2023-04-15T20:20:59.438Z,7.37
2023-04-15T20:23:01.052Z,7.10
2023-04-15T20:25:03.474Z,6.82
2023-04-15T20:27:05.042Z,6.77
2023-04-15T20:29:08.280Z,6.50
2023-04-15T20:31:10.054Z,6.40
2023-04-15T20:33:11.763Z,6.88
2023-04-15T20:35:13.349Z,7.50
2023-04-15T20:37:15.013Z,7.20
2023-04-15T20:39:16.575Z,7.00
2023-04-15T20:41:20.027Z,7.17
2023-04-15T20:43:21.590Z,7.10
2023-04-15T20:45:24.475Z,7.75
2023-04-15T20:47:26.146Z,7.47
2023-04-15T20:49:27.855Z,7.88
2023-04-15T20:51:29.407Z,7.80
2023-04-15T20:53:30.972Z,8.03
2023-04-15T20:55:32.544Z,7.20
2023-04-15T20:57:34.080Z,8.15
2023-04-15T20:59:35.680Z,8.00
2023-04-15T21:01:38.650Z,7.53
2023-04-15T21:03:40.399Z,7.57
2023-04-15T21:05:42.081Z,7.65
2023-04-15T21:07:43.667Z,7.65
2023-04-15T21:09:45.251Z,8.98
2023-04-15T21:12:00.457Z,7.70
2023-04-15T21:14:02.971Z,8.70
2023-04-15T21:16:04.987Z,8.50
2023-04-15T21:18:07.921Z,7.93
2023-04-15T21:20:10.700Z,7.60
2023-04-15T21:22:12.273Z,9.38
2023-04-15T21:24:13.896Z,7.72
2023-04-15T21:26:15.505Z,8.10
2023-04-15T21:28:17.109Z,7.47
2023-04-15T21:30:18.732Z,8.73
2023-04-15T21:32:20.381Z,7.67
2023-04-15T21:34:23.377Z,6.93
2023-04-15T21:36:24.976Z,8.40
2023-04-15T21:38:26.608Z,8.27
2023-04-15T21:40:28.337Z,7.32
2023-04-15T21:42:29.958Z,7.55
2023-04-15T21:44:31.576Z,7.60
2023-04-15T21:46:35.227Z,8.67
2023-04-15T21:48:37.413Z,8.10
2023-04-15T21:50:40.406Z,11.40
2023-04-15T21:52:41.964Z,8.60
2023-04-15T21:54:43.523Z,7.60
2023-04-15T21:56:45.095Z,6.95
2023-04-15T21:58:46.708Z,7.77
2023-04-15T22:00:48.349Z,6.20
2023-04-15T22:02:50.182Z,6.57
2023-04-15T22:04:51.864Z,7.60
2023-04-15T22:06:54.815Z,7.00
2023-04-15T22:08:57.820Z,7.27
2023-04-15T22:10:59.625Z,7.10
2023-04-15T22:13:01.189Z,6.57
2023-04-15T22:15:02.843Z,7.32
2023-04-15T22:17:04.506Z,7.97
2023-04-15T22:19:06.208Z,9.10
2023-04-15T22:21:07.921Z,7.10
2023-04-15T22:23:10.945Z,7.20
2023-04-15T22:25:12.717Z,8.47
2023-04-15T22:27:14.332Z,9.30
2023-04-15T22:29:15.943Z,8.70
2023-04-15T22:31:17.538Z,7.30
2023-04-15T22:33:19.189Z,6.40
2023-04-15T22:35:20.829Z,6.72
2023-04-15T22:37:22.535Z,6.80
2023-04-15T22:39:25.498Z,7.50
2023-04-15T22:41:27.073Z,7.05
2023-04-15T22:43:28.640Z,6.90
2023-04-15T22:45:30.197Z,7.40
2023-04-15T22:47:32.280Z,6.97
2023-04-15T22:49:33.860Z,7.15
2023-04-15T22:51:35.649Z,7.60
2023-04-15T22:53:37.210Z,6.05
2023-04-15T22:55:40.101Z,7.15
2023-04-15T22:57:41.682Z,7.18
2023-04-15T22:59:43.277Z,7.87
2023-04-15T23:01:44.914Z,6.80
2023-04-15T23:03:57.396Z,7.70
2023-04-15T23:06:06.856Z,7.47
2023-04-15T23:08:08.490Z,6.38
2023-04-15T23:10:10.362Z,7.40
2023-04-15T23:12:13.533Z,7.55
2023-04-15T23:14:15.153Z,7.10
2023-04-15T23:16:16.739Z,8.20
2023-04-15T23:18:18.320Z,7.45
2023-04-15T23:20:19.885Z,7.15
2023-04-15T23:22:21.466Z,7.80
2023-04-15T23:24:23.025Z,7.70
2023-04-15T23:26:24.638Z,7.43
2023-04-15T23:28:27.562Z,6.70
2023-04-15T23:30:30.533Z,8.70
2023-04-15T23:32:32.068Z,7.93
2023-04-15T23:34:33.714Z,8.10
2023-04-15T23:36:35.246Z,7.30
2023-04-15T23:38:36.822Z,8.47
2023-04-15T23:40:38.445Z,7.53
2023-04-15T23:42:40.099Z,7.45
2023-04-15T23:44:43.052Z,7.53
2023-04-15T23:46:44.709Z,8.10
2023-04-15T23:48:46.354Z,8.82
2023-04-15T23:50:47.913Z,8.25
2023-04-15T23:52:49.497Z,7.57
2023-04-15T23:54:51.088Z,7.65
2023-04-15T23:56:52.637Z,7.87
2023-04-15T23:58:54.186Z,8.80
